sensor_id;sensor_type;location;lat;lon;timestamp;pressure;altitude;pressure_sealevel;temperature;humidity
69247;BME280;56358;56.328;43.992;2023-03-26T00:01:06;99391.84;;;7.80;86.51
69247;BME280;56358;56.328;43.992;2023-03-26T00:03:09;99370.25;;;7.62;86.79
69247;BME280;56358;56.328;43.992;2023-03-26T00:05:10;99401.09;;;7.76;86.99
69247;BME280;56358;56.328;43.992;2023-03-26T00:07:13;99392.16;;;7.66;86.80
69247;BME280;56358;56.328;43.992;2023-03-26T00:09:15;99407.66;;;7.72;87.02
69247;BME280;56358;56.328;43.992;2023-03-26T00:11:18;99397.47;;;7.66;87.52
69247;BME280;56358;56.328;43.992;2023-03-26T00:13:20;99401.59;;;7.70;87.49
69247;BME280;56358;56.328;43.992;2023-03-26T00:15:20;99410.59;;;7.69;87.40
69247;BME280;56358;56.328;43.992;2023-03-26T00:17:21;99368.84;;;7.47;87.64
69247;BME280;56358;56.328;43.992;2023-03-26T00:19:22;99389.41;;;7.56;87.69
69247;BME280;56358;56.328;43.992;2023-03-26T00:21:24;99413.63;;;7.64;87.66
69247;BME280;56358;56.328;43.992;2023-03-26T00:23:29;99378.75;;;7.45;88.07
69247;BME280;56358;56.328;43.992;2023-03-26T00:25:30;99410.75;;;7.56;88.06
69247;BME280;56358;56.328;43.992;2023-03-26T00:27:34;99405.53;;;7.54;88.03
69247;BME280;56358;56.328;43.992;2023-03-26T00:29:35;99422.25;;;7.57;87.97
69247;BME280;56358;56.328;43.992;2023-03-26T00:31:36;99420.31;;;7.59;88.35
69247;BME280;56358;56.328;43.992;2023-03-26T00:33:40;99338.75;;;7.12;88.07
69247;BME280;56358;56.328;43.992;2023-03-26T00:35:42;99429.75;;;7.63;88.15
69247;BME280;56358;56.328;43.992;2023-03-26T00:37:46;99418.00;;;7.65;88.01
69247;BME280;56358;56.328;43.992;2023-03-26T00:39:47;99423.47;;;7.64;88.05
69247;BME280;56358;56.328;43.992;2023-03-26T00:41:48;99426.34;;;7.61;88.31
69247;BME280;56358;56.328;43.992;2023-03-26T00:43:55;99411.09;;;7.51;87.86
69247;BME280;56358;56.328;43.992;2023-03-26T00:45:56;99424.56;;;7.61;87.77
69247;BME280;56358;56.328;43.992;2023-03-26T00:47:56;99426.25;;;7.62;87.99
69247;BME280;56358;56.328;43.992;2023-03-26T00:49:57;99411.59;;;7.57;87.53
69247;BME280;56358;56.328;43.992;2023-03-26T00:51:58;99432.69;;;7.60;87.49
69247;BME280;56358;56.328;43.992;2023-03-26T00:53:58;99355.09;;;7.19;87.63
69247;BME280;56358;56.328;43.992;2023-03-26T00:55:59;99368.06;;;7.24;87.65
69247;BME280;56358;56.328;43.992;2023-03-26T00:58:00;99360.78;;;7.26;87.46
69247;BME280;56358;56.328;43.992;2023-03-26T01:00:01;99431.59;;;7.62;87.79
69247;BME280;56358;56.328;43.992;2023-03-26T01:02:17;99432.44;;;7.63;87.93
69247;BME280;56358;56.328;43.992;2023-03-26T01:04:21;99428.31;;;7.59;87.83
69247;BME280;56358;56.328;43.992;2023-03-26T01:06:28;99428.06;;;7.62;88.00
69247;BME280;56358;56.328;43.992;2023-03-26T01:08:41;99434.75;;;7.56;87.96
69247;BME280;56358;56.328;43.992;2023-03-26T01:10:43;99362.25;;;7.18;87.86
69247;BME280;56358;56.328;43.992;2023-03-26T01:12:50;99402.91;;;7.43;87.86
69247;BME280;56358;56.328;43.992;2023-03-26T01:14:53;99407.88;;;7.48;87.73
69247;BME280;56358;56.328;43.992;2023-03-26T01:16:56;99423.81;;;7.59;87.87
69247;BME280;56358;56.328;43.992;2023-03-26T01:18:57;99375.94;;;7.25;87.66
69247;BME280;56358;56.328;43.992;2023-03-26T01:21:01;99427.34;;;7.60;87.48
69247;BME280;56358;56.328;43.992;2023-03-26T01:23:05;99437.88;;;7.61;87.42
69247;BME280;56358;56.328;43.992;2023-03-26T01:25:07;99438.38;;;7.55;87.35
69247;BME280;56358;56.328;43.992;2023-03-26T01:29:42;99448.78;;;7.58;87.66
69247;BME280;56358;56.328;43.992;2023-03-26T01:32:21;99456.69;;;7.60;87.41
69247;BME280;56358;56.328;43.992;2023-03-26T01:34:43;99444.44;;;7.57;87.24
69247;BME280;56358;56.328;43.992;2023-03-26T01:39:18;99449.91;;;7.55;87.04
69247;BME280;56358;56.328;43.992;2023-03-26T01:46:16;99430.66;;;7.41;87.27
69247;BME280;56358;56.328;43.992;2023-03-26T01:48:19;99465.31;;;7.52;87.63
69247;BME280;56358;56.328;43.992;2023-03-26T01:50:20;99379.25;;;7.06;87.59
69247;BME280;56358;56.328;43.992;2023-03-26T01:52:22;99451.13;;;7.51;87.39
69247;BME280;56358;56.328;43.992;2023-03-26T01:54:27;99452.94;;;7.51;87.43
69247;BME280;56358;56.328;43.992;2023-03-26T01:56:39;99463.75;;;7.49;87.67
69247;BME280;56358;56.328;43.992;2023-03-26T02:01:36;99458.53;;;7.48;87.82
69247;BME280;56358;56.328;43.992;2023-03-26T02:03:52;99469.06;;;7.49;87.79
69247;BME280;56358;56.328;43.992;2023-03-26T02:06:22;99464.56;;;7.50;87.86
69247;BME280;56358;56.328;43.992;2023-03-26T02:08:37;99461.56;;;7.43;87.61
69247;BME280;56358;56.328;43.992;2023-03-26T02:10:42;99461.22;;;7.48;87.68
69247;BME280;56358;56.328;43.992;2023-03-26T02:12:43;99471.00;;;7.47;87.49
69247;BME280;56358;56.328;43.992;2023-03-26T02:14:44;99435.69;;;7.22;87.79
69247;BME280;56358;56.328;43.992;2023-03-26T02:17:05;99458.41;;;7.38;87.73
69247;BME280;56358;56.328;43.992;2023-03-26T02:19:09;99476.59;;;7.44;87.41
69247;BME280;56358;56.328;43.992;2023-03-26T02:21:18;99477.81;;;7.40;87.71
69247;BME280;56358;56.328;43.992;2023-03-26T02:23:21;99482.28;;;7.51;87.36
69247;BME280;56358;56.328;43.992;2023-03-26T02:25:22;99491.13;;;7.51;87.35
69247;BME280;56358;56.328;43.992;2023-03-26T02:27:23;99463.53;;;7.41;87.47
69247;BME280;56358;56.328;43.992;2023-03-26T02:29:24;99484.47;;;7.46;87.78
69247;BME280;56358;56.328;43.992;2023-03-26T02:31:26;99481.56;;;7.49;87.69
69247;BME280;56358;56.328;43.992;2023-03-26T02:33:28;99485.78;;;7.51;87.71
69247;BME280;56358;56.328;43.992;2023-03-26T02:35:29;99488.56;;;7.50;87.73
69247;BME280;56358;56.328;43.992;2023-03-26T02:37:30;99463.53;;;7.41;87.51
69247;BME280;56358;56.328;43.992;2023-03-26T02:39:33;99474.31;;;7.40;87.20
69247;BME280;56358;56.328;43.992;2023-03-26T02:41:34;99467.41;;;7.37;87.25
69247;BME280;56358;56.328;43.992;2023-03-26T02:43:35;99487.75;;;7.49;87.40
69247;BME280;56358;56.328;43.992;2023-03-26T02:45:35;99482.06;;;7.43;87.38
69247;BME280;56358;56.328;43.992;2023-03-26T02:47:36;99456.63;;;7.27;87.40
69247;BME280;56358;56.328;43.992;2023-03-26T02:49:36;99485.94;;;7.38;87.39
69247;BME280;56358;56.328;43.992;2023-03-26T02:51:37;99487.63;;;7.51;87.24
69247;BME280;56358;56.328;43.992;2023-03-26T02:53:38;99489.44;;;7.39;87.46
69247;BME280;56358;56.328;43.992;2023-03-26T02:55:40;99501.69;;;7.53;87.34
69247;BME280;56358;56.328;43.992;2023-03-26T02:57:41;99446.69;;;7.18;87.15
69247;BME280;56358;56.328;43.992;2023-03-26T02:59:41;99488.09;;;7.45;87.30
69247;BME280;56358;56.328;43.992;2023-03-26T03:01:42;99502.03;;;7.48;87.29
69247;BME280;56358;56.328;43.992;2023-03-26T03:03:43;99470.56;;;7.31;87.73
69247;BME280;56358;56.328;43.992;2023-03-26T03:05:43;99413.06;;;6.94;87.55
69247;BME280;56358;56.328;43.992;2023-03-26T03:07:45;99498.06;;;7.43;87.55
69247;BME280;56358;56.328;43.992;2023-03-26T03:09:46;99506.06;;;7.43;87.74
69247;BME280;56358;56.328;43.992;2023-03-26T03:11:50;99498.91;;;7.43;87.32
69247;BME280;56358;56.328;43.992;2023-03-26T03:13:52;99506.78;;;7.45;87.52
69247;BME280;56358;56.328;43.992;2023-03-26T03:15:53;99501.34;;;7.46;87.32
69247;BME280;56358;56.328;43.992;2023-03-26T03:17:54;99521.69;;;7.47;87.41
69247;BME280;56358;56.328;43.992;2023-03-26T03:19:54;99503.75;;;7.49;87.43
69247;BME280;56358;56.328;43.992;2023-03-26T03:21:55;99501.09;;;7.49;87.53
69247;BME280;56358;56.328;43.992;2023-03-26T03:23:56;99473.22;;;7.31;87.31
69247;BME280;56358;56.328;43.992;2023-03-26T03:25:57;99495.03;;;7.36;87.49
69247;BME280;56358;56.328;43.992;2023-03-26T03:27:58;99494.31;;;7.45;87.53
69247;BME280;56358;56.328;43.992;2023-03-26T03:29:59;99509.78;;;7.51;87.39
69247;BME280;56358;56.328;43.992;2023-03-26T03:31:59;99502.78;;;7.50;87.17
69247;BME280;56358;56.328;43.992;2023-03-26T03:34:00;99487.88;;;7.48;87.12
69247;BME280;56358;56.328;43.992;2023-03-26T03:36:01;99498.03;;;7.54;87.25
69247;BME280;56358;56.328;43.992;2023-03-26T03:38:09;99502.13;;;7.58;87.20
69247;BME280;56358;56.328;43.992;2023-03-26T03:40:10;99488.44;;;7.51;87.24
69247;BME280;56358;56.328;43.992;2023-03-26T03:42:11;99482.16;;;7.52;86.92
69247;BME280;56358;56.328;43.992;2023-03-26T03:44:12;99369.34;;;6.85;86.83
69247;BME280;56358;56.328;43.992;2023-03-26T03:46:12;99428.50;;;7.23;86.86
69247;BME280;56358;56.328;43.992;2023-03-26T03:48:13;99445.81;;;7.40;86.69
69247;BME280;56358;56.328;43.992;2023-03-26T03:50:14;99422.44;;;7.32;86.53
69247;BME280;56358;56.328;43.992;2023-03-26T03:52:14;99486.81;;;7.71;86.61
69247;BME280;56358;56.328;43.992;2023-03-26T03:54:15;99489.25;;;7.75;86.71
69247;BME280;56358;56.328;43.992;2023-03-26T03:56:16;99481.72;;;7.80;86.56
69247;BME280;56358;56.328;43.992;2023-03-26T03:58:20;99486.94;;;7.81;86.58
69247;BME280;56358;56.328;43.992;2023-03-26T04:00:21;99488.38;;;7.85;86.47
69247;BME280;56358;56.328;43.992;2023-03-26T04:02:23;99479.41;;;7.86;86.47
69247;BME280;56358;56.328;43.992;2023-03-26T04:04:29;99477.44;;;7.88;86.04
69247;BME280;56358;56.328;43.992;2023-03-26T04:06:31;99482.66;;;7.90;86.23
69247;BME280;56358;56.328;43.992;2023-03-26T04:08:32;99465.59;;;7.81;85.97
69247;BME280;56358;56.328;43.992;2023-03-26T04:10:34;99472.72;;;7.92;85.91
69247;BME280;56358;56.328;43.992;2023-03-26T04:12:34;99481.72;;;7.80;85.90
69247;BME280;56358;56.328;43.992;2023-03-26T04:14:35;99488.38;;;7.85;85.90
69247;BME280;56358;56.328;43.992;2023-03-26T04:16:35;99473.47;;;7.71;85.94
69247;BME280;56358;56.328;43.992;2023-03-26T04:18:36;99490.09;;;7.86;86.10
69247;BME280;56358;56.328;43.992;2023-03-26T04:20:42;99479.63;;;7.83;85.85
69247;BME280;56358;56.328;43.992;2023-03-26T04:22:46;99485.22;;;7.92;85.80
69247;BME280;56358;56.328;43.992;2023-03-26T04:24:46;99478.03;;;7.92;85.83
69247;BME280;56358;56.328;43.992;2023-03-26T04:26:49;99360.56;;;7.17;85.97
69247;BME280;56358;56.328;43.992;2023-03-26T04:30:54;99498.91;;;7.98;85.41
69247;BME280;56358;56.328;43.992;2023-03-26T04:32:56;99481.19;;;7.97;85.52
69247;BME280;56358;56.328;43.992;2023-03-26T04:34:57;99481.06;;;7.99;85.52
69247;BME280;56358;56.328;43.992;2023-03-26T04:37:02;99494.41;;;7.99;85.57
69247;BME280;56358;56.328;43.992;2023-03-26T04:39:04;99487.63;;;7.95;85.46
69247;BME280;56358;56.328;43.992;2023-03-26T04:41:06;99496.22;;;7.98;85.30
69247;BME280;56358;56.328;43.992;2023-03-26T04:43:11;99491.72;;;7.99;85.45
69247;BME280;56358;56.328;43.992;2023-03-26T04:45:16;99496.22;;;7.98;85.20
69247;BME280;56358;56.328;43.992;2023-03-26T04:47:21;99496.81;;;8.02;85.33
69247;BME280;56358;56.328;43.992;2023-03-26T04:49:22;99496.22;;;7.98;85.43
69247;BME280;56358;56.328;43.992;2023-03-26T04:51:25;99492.06;;;8.05;85.49
69247;BME280;56358;56.328;43.992;2023-03-26T04:53:26;99487.75;;;7.93;84.74
69247;BME280;56358;56.328;43.992;2023-03-26T04:55:35;99505.28;;;8.07;84.99
69247;BME280;56358;56.328;43.992;2023-03-26T04:57:40;99500.28;;;8.14;84.72
69247;BME280;56358;56.328;43.992;2023-03-26T04:59:45;99496.03;;;8.11;84.58
69247;BME280;56358;56.328;43.992;2023-03-26T05:01:46;99497.09;;;8.20;84.65
69247;BME280;56358;56.328;43.992;2023-03-26T05:03:47;99500.09;;;8.27;84.49
69247;BME280;56358;56.328;43.992;2023-03-26T05:05:47;99489.94;;;8.20;83.73
69247;BME280;56358;56.328;43.992;2023-03-26T05:07:49;99505.78;;;8.33;83.12
69247;BME280;56358;56.328;43.992;2023-03-26T05:09:49;99502.72;;;8.38;83.38
69247;BME280;56358;56.328;43.992;2023-03-26T05:11:50;99466.09;;;8.29;83.22
69247;BME280;56358;56.328;43.992;2023-03-26T05:13:51;99486.31;;;8.43;82.71
69247;BME280;56358;56.328;43.992;2023-03-26T05:15:51;99496.34;;;8.50;82.78
69247;BME280;56358;56.328;43.992;2023-03-26T05:17:52;99481.88;;;8.53;82.18
69247;BME280;56358;56.328;43.992;2023-03-26T05:19:54;99480.53;;;8.59;82.50
69247;BME280;56358;56.328;43.992;2023-03-26T05:21:55;99408.25;;;8.18;81.73
69247;BME280;56358;56.328;43.992;2023-03-26T05:23:56;99474.66;;;8.65;81.47
69247;BME280;56358;56.328;43.992;2023-03-26T05:25:56;99434.56;;;8.44;81.51
69247;BME280;56358;56.328;43.992;2023-03-26T05:27:57;99474.66;;;8.65;81.35
69247;BME280;56358;56.328;43.992;2023-03-26T05:30:02;99477.91;;;8.68;81.26
69247;BME280;56358;56.328;43.992;2023-03-26T05:32:03;99484.97;;;8.69;81.17
69247;BME280;56358;56.328;43.992;2023-03-26T05:34:03;99476.81;;;8.71;81.17
69247;BME280;56358;56.328;43.992;2023-03-26T05:36:10;99482.97;;;8.71;81.21
69247;BME280;56358;56.328;43.992;2023-03-26T05:38:12;99481.03;;;8.74;81.55
69247;BME280;56358;56.328;43.992;2023-03-26T05:40:14;99484.53;;;8.74;81.20
69247;BME280;56358;56.328;43.992;2023-03-26T05:42:16;99484.28;;;8.77;81.20
69247;BME280;56358;56.328;43.992;2023-03-26T05:44:16;99479.66;;;8.79;81.36
69247;BME280;56358;56.328;43.992;2023-03-26T05:46:17;99472.16;;;8.73;81.62
69247;BME280;56358;56.328;43.992;2023-03-26T05:48:19;99481.03;;;8.74;81.63
69247;BME280;56358;56.328;43.992;2023-03-26T05:50:21;99408.06;;;8.31;81.46
69247;BME280;56358;56.328;43.992;2023-03-26T05:52:21;99406.69;;;8.36;80.92
69247;BME280;56358;56.328;43.992;2023-03-26T05:54:22;99466.94;;;8.71;81.18
69247;BME280;56358;56.328;43.992;2023-03-26T05:56:22;99492.19;;;8.79;81.81
69247;BME280;56358;56.328;43.992;2023-03-26T05:58:24;99414.06;;;8.44;81.62
69247;BME280;56358;56.328;43.992;2023-03-26T06:00:25;99456.53;;;8.68;80.68
69247;BME280;56358;56.328;43.992;2023-03-26T06:02:26;99484.72;;;8.82;80.05
69247;BME280;56358;56.328;43.992;2023-03-26T06:04:28;99475.41;;;8.77;80.14
69247;BME280;56358;56.328;43.992;2023-03-26T06:06:31;99400.31;;;8.28;79.86
69247;BME280;56358;56.328;43.992;2023-03-26T06:08:31;99442.72;;;8.42;79.79
69247;BME280;56358;56.328;43.992;2023-03-26T06:10:32;99469.00;;;8.58;80.19
69247;BME280;56358;56.328;43.992;2023-03-26T06:12:36;99371.88;;;7.96;80.42
69247;BME280;56358;56.328;43.992;2023-03-26T06:14:37;99461.41;;;8.42;80.65
69247;BME280;56358;56.328;43.992;2023-03-26T06:16:37;99465.31;;;8.38;80.44
69247;BME280;56358;56.328;43.992;2023-03-26T06:18:39;99469.97;;;8.36;80.60
69247;BME280;56358;56.328;43.992;2023-03-26T06:20:40;99469.38;;;8.32;80.92
69247;BME280;56358;56.328;43.992;2023-03-26T06:22:41;99464.28;;;8.29;80.85
69247;BME280;56358;56.328;43.992;2023-03-26T06:24:41;99450.00;;;8.19;81.62
69247;BME280;56358;56.328;43.992;2023-03-26T06:26:42;99476.59;;;8.20;82.22
69247;BME280;56358;56.328;43.992;2023-03-26T06:28:43;99384.94;;;7.78;82.60
69247;BME280;56358;56.328;43.992;2023-03-26T06:30:43;99461.03;;;8.26;83.21
69247;BME280;56358;56.328;43.992;2023-03-26T06:32:44;99431.25;;;8.09;83.34
69247;BME280;56358;56.328;43.992;2023-03-26T06:34:45;99449.03;;;8.20;83.96
69247;BME280;56358;56.328;43.992;2023-03-26T06:36:45;99399.81;;;7.92;83.99
69247;BME280;56358;56.328;43.992;2023-03-26T06:38:48;99441.75;;;8.22;83.90
69247;BME280;56358;56.328;43.992;2023-03-26T06:40:48;99466.28;;;8.37;83.57
69247;BME280;56358;56.328;43.992;2023-03-26T06:42:49;99457.31;;;8.38;84.04
69247;BME280;56358;56.328;43.992;2023-03-26T06:44:50;99342.06;;;7.69;84.26
69247;BME280;56358;56.328;43.992;2023-03-26T06:46:50;99470.75;;;8.48;83.55
69247;BME280;56358;56.328;43.992;2023-03-26T06:48:51;99457.53;;;8.46;83.54
69247;BME280;56358;56.328;43.992;2023-03-26T06:50:53;99443.13;;;8.37;84.06
69247;BME280;56358;56.328;43.992;2023-03-26T06:52:54;99467.56;;;8.54;83.51
69247;BME280;56358;56.328;43.992;2023-03-26T06:54:55;99436.41;;;8.43;84.21
69247;BME280;56358;56.328;43.992;2023-03-26T06:56:56;99457.31;;;8.59;83.58
69247;BME280;56358;56.328;43.992;2023-03-26T06:58:58;99452.69;;;8.61;83.57
69247;BME280;56358;56.328;43.992;2023-03-26T07:00:58;99447.03;;;8.54;83.44
69247;BME280;56358;56.328;43.992;2023-03-26T07:03:02;99457.91;;;8.63;83.30
69247;BME280;56358;56.328;43.992;2023-03-26T07:05:03;99454.13;;;8.65;83.19
69247;BME280;56358;56.328;43.992;2023-03-26T07:07:04;99465.53;;;8.67;82.69
69247;BME280;56358;56.328;43.992;2023-03-26T07:09:05;99476.06;;;8.69;83.13
69247;BME280;56358;56.328;43.992;2023-03-26T07:11:05;99470.88;;;8.67;82.70
69247;BME280;56358;56.328;43.992;2023-03-26T07:13:06;99423.38;;;8.50;82.61
69247;BME280;56358;56.328;43.992;2023-03-26T07:15:07;99442.72;;;8.63;82.98
69247;BME280;56358;56.328;43.992;2023-03-26T07:17:08;99390.75;;;8.25;82.81
69247;BME280;56358;56.328;43.992;2023-03-26T07:19:09;99440.56;;;8.57;83.34
69247;BME280;56358;56.328;43.992;2023-03-26T07:21:10;99446.22;;;8.64;83.07
69247;BME280;56358;56.328;43.992;2023-03-26T07:23:11;99402.19;;;8.37;82.69
69247;BME280;56358;56.328;43.992;2023-03-26T07:25:16;99439.91;;;8.65;82.62
69247;BME280;56358;56.328;43.992;2023-03-26T07:29:48;99438.66;;;8.69;82.45
69247;BME280;56358;56.328;43.992;2023-03-26T07:32:07;99441.19;;;8.70;82.63
69247;BME280;56358;56.328;43.992;2023-03-26T07:36:33;99434.81;;;8.83;82.07
69247;BME280;56358;56.328;43.992;2023-03-26T07:43:06;99432.97;;;8.83;81.71
69247;BME280;56358;56.328;43.992;2023-03-26T07:45:21;99420.28;;;8.76;81.62
69247;BME280;56358;56.328;43.992;2023-03-26T07:47:31;99433.81;;;8.84;81.40
69247;BME280;56358;56.328;43.992;2023-03-26T07:49:33;99415.88;;;8.65;81.52
69247;BME280;56358;56.328;43.992;2023-03-26T07:51:34;99379.41;;;8.54;81.34
69247;BME280;56358;56.328;43.992;2023-03-26T07:53:35;99441.56;;;8.87;81.15
69247;BME280;56358;56.328;43.992;2023-03-26T07:55:51;99406.59;;;8.69;81.20
69247;BME280;56358;56.328;43.992;2023-03-26T08:00:20;99405.34;;;8.73;81.32
69247;BME280;56358;56.328;43.992;2023-03-26T08:05:12;99422.16;;;8.95;81.38
69247;BME280;56358;56.328;43.992;2023-03-26T08:07:59;99410.94;;;8.91;81.29
69247;BME280;56358;56.328;43.992;2023-03-26T08:10:21;99417.13;;;9.01;81.26
69247;BME280;56358;56.328;43.992;2023-03-26T08:18:00;99405.47;;;9.02;80.90
69247;BME280;56358;56.328;43.992;2023-03-26T08:26:18;99400.97;;;9.03;80.52
69247;BME280;56358;56.328;43.992;2023-03-26T08:30:39;99410.13;;;9.00;80.37
69247;BME280;56358;56.328;43.992;2023-03-26T08:32:40;99356.13;;;8.66;80.51
69247;BME280;56358;56.328;43.992;2023-03-26T08:34:41;99387.31;;;8.96;80.71
69247;BME280;56358;56.328;43.992;2023-03-26T08:36:41;99399.00;;;9.05;80.31
69247;BME280;56358;56.328;43.992;2023-03-26T08:38:42;99266.25;;;8.24;80.50
69247;BME280;56358;56.328;43.992;2023-03-26T08:43:25;99393.22;;;9.00;80.87
69247;BME280;56358;56.328;43.992;2023-03-26T08:48:43;99384.22;;;9.01;80.90
69247;BME280;56358;56.328;43.992;2023-03-26T08:55:19;99374.06;;;8.95;80.87
69247;BME280;56358;56.328;43.992;2023-03-26T08:57:34;99379.81;;;8.90;81.15
69247;BME280;56358;56.328;43.992;2023-03-26T09:02:21;99380.25;;;8.85;81.61
69247;BME280;56358;56.328;43.992;2023-03-26T09:14:19;99381.41;;;9.02;81.63
69247;BME280;56358;56.328;43.992;2023-03-26T09:27:39;99351.69;;;8.86;81.34
69247;BME280;56358;56.328;43.992;2023-03-26T09:40:01;99379.53;;;8.93;82.00
69247;BME280;56358;56.328;43.992;2023-03-26T09:42:39;99370.69;;;8.93;82.10
69247;BME280;56358;56.328;43.992;2023-03-26T09:55:26;99377.16;;;8.90;82.28
69247;BME280;56358;56.328;43.992;2023-03-26T10:00:02;99349.84;;;8.86;82.19
69247;BME280;56358;56.328;43.992;2023-03-26T10:09:05;99335.09;;;8.92;82.24
69247;BME280;56358;56.328;43.992;2023-03-26T10:13:56;99326.50;;;8.79;83.21
69247;BME280;56358;56.328;43.992;2023-03-26T10:21:03;99331.72;;;8.90;83.08
69247;BME280;56358;56.328;43.992;2023-03-26T10:35:18;99312.03;;;9.01;83.12
69247;BME280;56358;56.328;43.992;2023-03-26T10:40:08;99312.88;;;9.01;82.65
69247;BME280;56358;56.328;43.992;2023-03-26T10:49:40;99309.19;;;8.83;83.97
69247;BME280;56358;56.328;43.992;2023-03-26T10:52:02;99312.16;;;8.89;84.04
69247;BME280;56358;56.328;43.992;2023-03-26T10:54:18;99276.56;;;8.79;84.20
69247;BME280;56358;56.328;43.992;2023-03-26T10:56:26;99296.81;;;8.92;84.03
69247;BME280;56358;56.328;43.992;2023-03-26T10:58:28;99240.41;;;8.65;84.07
69247;BME280;56358;56.328;43.992;2023-03-26T11:00:29;99299.25;;;9.04;83.91
69247;BME280;56358;56.328;43.992;2023-03-26T11:02:38;99305.84;;;9.00;83.85
69247;BME280;56358;56.328;43.992;2023-03-26T11:05:14;99306.00;;;9.18;83.79
69247;BME280;56358;56.328;43.992;2023-03-26T11:13:52;99287.72;;;9.43;82.97
69247;BME280;56358;56.328;43.992;2023-03-26T11:16:15;99291.81;;;9.47;82.46
69247;BME280;56358;56.328;43.992;2023-03-26T11:18:19;99296.56;;;9.53;82.36
69247;BME280;56358;56.328;43.992;2023-03-26T11:27:26;99291.75;;;9.86;81.38
69247;BME280;56358;56.328;43.992;2023-03-26T11:34:14;99279.09;;;10.26;80.08
69247;BME280;56358;56.328;43.992;2023-03-26T11:36:28;99260.44;;;10.34;79.33
69247;BME280;56358;56.328;43.992;2023-03-26T11:38:40;99294.75;;;10.59;78.70
69247;BME280;56358;56.328;43.992;2023-03-26T11:40:43;99266.41;;;10.84;78.21
69247;BME280;56358;56.328;43.992;2023-03-26T11:42:56;99252.16;;;11.01;76.76
69247;BME280;56358;56.328;43.992;2023-03-26T11:45:02;99260.22;;;11.37;75.86
69247;BME280;56358;56.328;43.992;2023-03-26T11:47:08;99257.91;;;11.43;74.51
69247;BME280;56358;56.328;43.992;2023-03-26T11:49:12;99268.19;;;11.29;74.75
69247;BME280;56358;56.328;43.992;2023-03-26T11:51:35;99263.19;;;11.34;74.60
69247;BME280;56358;56.328;43.992;2023-03-26T11:53:37;99267.88;;;11.32;74.89
69247;BME280;56358;56.328;43.992;2023-03-26T12:00:29;99234.59;;;11.43;74.47
69247;BME280;56358;56.328;43.992;2023-03-26T12:02:37;99256.66;;;11.55;73.99
69247;BME280;56358;56.328;43.992;2023-03-26T12:04:41;99246.31;;;11.42;74.09
69247;BME280;56358;56.328;43.992;2023-03-26T12:06:55;99254.81;;;11.55;74.63
69247;BME280;56358;56.328;43.992;2023-03-26T12:08:57;99256.94;;;11.52;74.37
69247;BME280;56358;56.328;43.992;2023-03-26T12:11:09;99263.19;;;11.52;74.22
69247;BME280;56358;56.328;43.992;2023-03-26T12:13:32;99271.84;;;11.46;74.75
69247;BME280;56358;56.328;43.992;2023-03-26T12:15:34;99256.50;;;11.38;74.53
69247;BME280;56358;56.328;43.992;2023-03-26T12:17:41;99171.50;;;10.95;74.97
69247;BME280;56358;56.328;43.992;2023-03-26T12:19:44;99248.16;;;11.42;74.44
69247;BME280;56358;56.328;43.992;2023-03-26T12:21:52;99242.53;;;11.53;74.19
69247;BME280;56358;56.328;43.992;2023-03-26T12:24:01;99226.81;;;11.58;73.64
69247;BME280;56358;56.328;43.992;2023-03-26T12:26:27;99246.59;;;11.57;73.45
69247;BME280;56358;56.328;43.992;2023-03-26T12:28:31;99225.59;;;11.52;73.79
69247;BME280;56358;56.328;43.992;2023-03-26T12:30:36;99232.94;;;11.68;73.71
69247;BME280;56358;56.328;43.992;2023-03-26T12:32:41;99219.75;;;11.57;73.80
69247;BME280;56358;56.328;43.992;2023-03-26T12:34:44;99215.25;;;11.57;73.23
69247;BME280;56358;56.328;43.992;2023-03-26T12:37:04;99220.13;;;11.62;73.60
69247;BME280;56358;56.328;43.992;2023-03-26T12:39:31;99222.34;;;11.67;73.13
69247;BME280;56358;56.328;43.992;2023-03-26T12:41:36;99216.78;;;11.60;73.44
69247;BME280;56358;56.328;43.992;2023-03-26T12:43:46;99149.94;;;11.22;73.64
69247;BME280;56358;56.328;43.992;2023-03-26T12:45:53;99154.47;;;11.30;73.50
69247;BME280;56358;56.328;43.992;2023-03-26T12:47:55;99197.22;;;11.50;73.55
69247;BME280;56358;56.328;43.992;2023-03-26T12:49:57;99214.59;;;11.64;73.25
69247;BME280;56358;56.328;43.992;2023-03-26T12:52:23;99213.28;;;11.68;73.44
69247;BME280;56358;56.328;43.992;2023-03-26T13:15:21;99180.53;;;11.38;73.65
69247;BME280;56358;56.328;43.992;2023-03-26T13:19:44;99169.97;;;11.18;74.21
69247;BME280;56358;56.328;43.992;2023-03-26T13:33:53;99161.00;;;11.28;74.60
69247;BME280;56358;56.328;43.992;2023-03-26T13:36:08;99169.91;;;11.28;74.41
69247;BME280;56358;56.328;43.992;2023-03-26T13:45:57;99093.78;;;11.03;73.77
69247;BME280;56358;56.328;43.992;2023-03-26T13:47:33;99150.78;;;11.49;73.56
69247;BME280;56358;56.328;43.992;2023-03-26T13:49:40;99091.97;;;11.12;73.67
69247;BME280;56358;56.328;43.992;2023-03-26T13:54:22;99157.31;;;11.47;73.12
69247;BME280;56358;56.328;43.992;2023-03-26T13:56:33;99132.25;;;11.38;72.93
69247;BME280;56358;56.328;43.992;2023-03-26T13:58:42;99139.34;;;11.47;72.96
69247;BME280;56358;56.328;43.992;2023-03-26T14:03:13;99147.56;;;11.46;73.04
69247;BME280;56358;56.328;43.992;2023-03-26T14:05:43;99134.81;;;11.48;72.89
69247;BME280;56358;56.328;43.992;2023-03-26T14:07:50;99077.41;;;11.14;72.99
69247;BME280;56358;56.328;43.992;2023-03-26T14:09:57;99120.72;;;11.46;72.85
69247;BME280;56358;56.328;43.992;2023-03-26T14:12:11;99143.59;;;11.58;72.91
69247;BME280;56358;56.328;43.992;2023-03-26T14:14:17;99128.00;;;11.53;72.20
69247;BME280;56358;56.328;43.992;2023-03-26T14:16:25;99136.25;;;11.60;72.31
69247;BME280;56358;56.328;43.992;2023-03-26T14:18:34;99135.38;;;11.60;72.33
69247;BME280;56358;56.328;43.992;2023-03-26T14:30:43;99109.56;;;11.32;72.38
69247;BME280;56358;56.328;43.992;2023-03-26T14:48:58;99108.22;;;10.84;72.81
69247;BME280;56358;56.328;43.992;2023-03-26T14:53:41;99116.75;;;10.61;73.59
69247;BME280;56358;56.328;43.992;2023-03-26T15:03:47;99101.72;;;10.50;73.31